sensor_id;sensor_type;location;lat;lon;timestamp;pressure;altitude;pressure_sealevel;temperature;humidity
63194;BME280;49289;51.670;5.624;2022-09-04T00:00:42;101485.61;;;24.50;50.49
63194;BME280;49289;51.670;5.624;2022-09-04T00:02:27;101466.34;;;24.40;50.55
63194;BME280;49289;51.670;5.624;2022-09-04T00:04:16;101482.37;;;24.41;50.66
63194;BME280;49289;51.670;5.624;2022-09-04T00:05:49;101467.16;;;24.26;50.82
63194;BME280;49289;51.670;5.624;2022-09-04T00:07:40;101480.94;;;24.29;51.07
63194;BME280;49289;51.670;5.624;2022-09-04T00:09:27;101466.90;;;24.23;51.08
63194;BME280;49289;51.670;5.624;2022-09-04T00:11:00;101482.11;;;24.24;51.18
63194;BME280;49289;51.670;5.624;2022-09-04T00:12:49;101483.78;;;24.19;51.20
63194;BME280;49289;51.670;5.624;2022-09-04T00:14:39;101490.28;;;24.12;51.57
63194;BME280;49289;51.670;5.624;2022-09-04T00:16:26;101493.83;;;24.00;52.11
63194;BME280;49289;51.670;5.624;2022-09-04T00:18:19;101494.52;;;23.96;52.12
63194;BME280;49289;51.670;5.624;2022-09-04T00:20:05;101493.83;;;24.00;51.92
63194;BME280;49289;51.670;5.624;2022-09-04T00:21:54;101493.56;;;24.02;51.89
63194;BME280;49289;51.670;5.624;2022-09-04T00:23:42;101480.53;;;23.93;51.90
63194;BME280;49289;51.670;5.624;2022-09-04T00:25:31;101498.70;;;23.97;51.97
63194;BME280;49289;51.670;5.624;2022-09-04T00:27:19;101499.41;;;23.90;52.04
63194;BME280;49289;51.670;5.624;2022-09-04T00:29:08;101501.74;;;23.93;52.06
63194;BME280;49289;51.670;5.624;2022-09-04T00:30:55;101489.53;;;23.79;52.19
63194;BME280;49289;51.670;5.624;2022-09-04T00:32:46;101499.41;;;23.82;52.43
63194;BME280;49289;51.670;5.624;2022-09-04T00:34:38;101491.37;;;23.80;52.32
63194;BME280;49289;51.670;5.624;2022-09-04T00:36:10;101507.95;;;23.82;52.48
63194;BME280;49289;51.670;5.624;2022-09-04T00:37:44;101507.05;;;23.79;52.48
63194;BME280;49289;51.670;5.624;2022-09-04T00:39:16;101491.49;;;23.70;52.51
63194;BME280;49289;51.670;5.624;2022-09-04T00:41:03;101505.98;;;23.72;52.62
63194;BME280;49289;51.670;5.624;2022-09-04T00:42:41;101493.20;;;23.63;52.70
63194;BME280;49289;51.670;5.624;2022-09-04T00:44:38;101490.48;;;23.54;52.90
63194;BME280;49289;51.670;5.624;2022-09-04T00:46:40;101507.50;;;23.61;52.88
63194;BME280;49289;51.670;5.624;2022-09-04T00:50:51;101518.91;;;23.65;52.88
63194;BME280;49289;51.670;5.624;2022-09-04T00:52:51;101517.83;;;23.64;52.86
63194;BME280;49289;51.670;5.624;2022-09-04T00:54:49;101495.61;;;23.45;53.16
63194;BME280;49289;51.670;5.624;2022-09-04T00:56:34;101514.55;;;23.47;53.29
63194;BME280;49289;51.670;5.624;2022-09-04T00:58:25;101514.70;;;23.52;53.28
63194;BME280;49289;51.670;5.624;2022-09-04T01:00:20;101517.87;;;23.53;53.31
63194;BME280;49289;51.670;5.624;2022-09-04T01:02:19;101516.62;;;23.49;53.41
63194;BME280;49289;51.670;5.624;2022-09-04T01:03:47;101517.54;;;23.39;53.62
63194;BME280;49289;51.670;5.624;2022-09-04T01:05:38;101507.67;;;23.29;53.54
63194;BME280;49289;51.670;5.624;2022-09-04T01:07:42;101508.84;;;23.31;53.43
63194;BME280;49289;51.670;5.624;2022-09-04T01:09:53;101523.00;;;23.34;53.54
63194;BME280;49289;51.670;5.624;2022-09-04T01:11:41;101515.80;;;23.28;53.61
63194;BME280;49289;51.670;5.624;2022-09-04T01:13:30;101516.31;;;23.23;53.80
63194;BME280;49289;51.670;5.624;2022-09-04T01:15:18;101515.22;;;23.23;53.78
63194;BME280;49289;51.670;5.624;2022-09-04T01:16:51;101537.80;;;23.13;54.30
63194;BME280;49289;51.670;5.624;2022-09-04T01:18:40;101537.25;;;23.23;54.01
63194;BME280;49289;51.670;5.624;2022-09-04T01:20:29;101535.79;;;23.22;53.96
63194;BME280;49289;51.670;5.624;2022-09-04T01:24:49;101524.25;;;23.06;54.25
63194;BME280;49289;51.670;5.624;2022-09-04T01:26:39;101544.59;;;23.15;54.34
63194;BME280;49289;51.670;5.624;2022-09-04T01:28:25;101536.55;;;23.11;54.17
63194;BME280;49289;51.670;5.624;2022-09-04T01:30:15;101539.39;;;23.14;54.17
63194;BME280;49289;51.670;5.624;2022-09-04T01:32:06;101539.65;;;23.11;54.25
63194;BME280;49289;51.670;5.624;2022-09-04T01:33:59;101540.66;;;23.11;54.40
63194;BME280;49289;51.670;5.624;2022-09-04T01:35:42;101531.25;;;22.97;54.73
63194;BME280;49289;51.670;5.624;2022-09-04T01:37:38;101550.28;;;23.04;54.79
63194;BME280;49289;51.670;5.624;2022-09-04T01:39:07;101550.25;;;23.00;54.74
63194;BME280;49289;51.670;5.624;2022-09-04T01:40:55;101551.04;;;23.04;54.57
63194;BME280;49289;51.670;5.624;2022-09-04T01:42:29;101554.94;;;22.97;54.74
63194;BME280;49289;51.670;5.624;2022-09-04T01:44:16;101555.81;;;23.06;54.57
63194;BME280;49289;51.670;5.624;2022-09-04T01:46:29;101553.44;;;22.99;54.89
63194;BME280;49289;51.670;5.624;2022-09-04T01:48:17;101557.20;;;22.99;54.76
63194;BME280;49289;51.670;5.624;2022-09-04T01:49:50;101555.27;;;22.94;54.90
63194;BME280;49289;51.670;5.624;2022-09-04T01:51:26;101551.92;;;22.95;54.70
63194;BME280;49289;51.670;5.624;2022-09-04T01:53:16;101558.70;;;22.97;54.79
63194;BME280;49289;51.670;5.624;2022-09-04T01:54:51;101564.06;;;22.98;55.08
63194;BME280;49289;51.670;5.624;2022-09-04T01:56:41;101543.88;;;22.83;55.25
63194;BME280;49289;51.670;5.624;2022-09-04T01:58:30;101561.80;;;22.89;55.22
63194;BME280;49289;51.670;5.624;2022-09-04T02:00:18;101554.77;;;22.89;55.21
63194;BME280;49289;51.670;5.624;2022-09-04T02:02:08;101556.91;;;22.82;55.29
63194;BME280;49289;51.670;5.624;2022-09-04T02:03:40;101540.88;;;22.70;55.31
63194;BME280;49289;51.670;5.624;2022-09-04T02:05:28;101556.45;;;22.80;55.20
63194;BME280;49289;51.670;5.624;2022-09-04T02:07:15;101562.17;;;22.82;55.26
63194;BME280;49289;51.670;5.624;2022-09-04T02:09:08;101549.08;;;22.71;55.47
63194;BME280;49289;51.670;5.624;2022-09-04T02:10:55;101567.83;;;22.75;55.60
63194;BME280;49289;51.670;5.624;2022-09-04T02:12:45;101571.59;;;22.78;55.53
63194;BME280;49289;51.670;5.624;2022-09-04T02:14:34;101575.52;;;22.76;55.58
63194;BME280;49289;51.670;5.624;2022-09-04T02:16:11;101573.18;;;22.74;55.60
63194;BME280;49289;51.670;5.624;2022-09-04T02:18:01;101579.71;;;22.78;55.33
63194;BME280;49289;51.670;5.624;2022-09-04T02:19:53;101574.25;;;22.68;55.55
63194;BME280;49289;51.670;5.624;2022-09-04T02:21:25;101588.23;;;22.69;55.71
63194;BME280;49289;51.670;5.624;2022-09-04T02:23:01;101590.48;;;22.68;55.75
63194;BME280;49289;51.670;5.624;2022-09-04T02:24:48;101592.50;;;22.69;55.78
63194;BME280;49289;51.670;5.624;2022-09-04T02:26:22;101590.91;;;22.72;55.78
63194;BME280;49289;51.670;5.624;2022-09-04T02:27:56;101594.59;;;22.68;55.91
63194;BME280;49289;51.670;5.624;2022-09-04T02:29:45;101592.91;;;22.64;56.03
63194;BME280;49289;51.670;5.624;2022-09-04T02:31:34;101582.64;;;22.55;56.15
63194;BME280;49289;51.670;5.624;2022-09-04T02:33:24;101597.42;;;22.66;56.13
63194;BME280;49289;51.670;5.624;2022-09-04T02:35:14;101589.43;;;22.58;56.35
63194;BME280;49289;51.670;5.624;2022-09-04T02:37:01;101602.63;;;22.69;56.37
63194;BME280;49289;51.670;5.624;2022-09-04T02:38:52;101600.94;;;22.67;56.44
63194;BME280;49289;51.670;5.624;2022-09-04T02:40:39;101602.95;;;22.67;56.41
63194;BME280;49289;51.670;5.624;2022-09-04T02:42:26;101586.33;;;22.56;56.39
63194;BME280;49289;51.670;5.624;2022-09-04T02:44:19;101604.88;;;22.69;56.43
63194;BME280;49289;51.670;5.624;2022-09-04T02:45:54;101608.21;;;22.63;56.65
63194;BME280;49289;51.670;5.624;2022-09-04T02:47:41;101603.91;;;22.61;56.66
63194;BME280;49289;51.670;5.624;2022-09-04T02:49:17;101588.58;;;22.55;56.53
63194;BME280;49289;51.670;5.624;2022-09-04T02:51:12;101604.95;;;22.63;56.51
63194;BME280;49289;51.670;5.624;2022-09-04T02:52:51;101611.10;;;22.60;56.54
63194;BME280;49289;51.670;5.624;2022-09-04T02:54:45;101613.85;;;22.56;56.65
63194;BME280;49289;51.670;5.624;2022-09-04T02:56:34;101613.36;;;22.58;56.59
63194;BME280;49289;51.670;5.624;2022-09-04T02:58:22;101600.94;;;22.48;56.66
63194;BME280;49289;51.670;5.624;2022-09-04T03:00:11;101615.85;;;22.54;56.86
63194;BME280;49289;51.670;5.624;2022-09-04T03:01:59;101598.44;;;22.48;56.77
63194;BME280;49289;51.670;5.624;2022-09-04T03:03:50;101616.00;;;22.48;57.05
63194;BME280;49289;51.670;5.624;2022-09-04T03:05:38;101615.83;;;22.46;57.17
63194;BME280;49289;51.670;5.624;2022-09-04T03:07:26;101620.87;;;22.38;57.53
63194;BME280;49289;51.670;5.624;2022-09-04T03:09:13;101620.67;;;22.44;57.14
63194;BME280;49289;51.670;5.624;2022-09-04T03:10:46;101623.53;;;22.49;57.13
63194;BME280;49289;51.670;5.624;2022-09-04T03:12:37;101610.25;;;22.39;57.36
63194;BME280;49289;51.670;5.624;2022-09-04T03:14:26;101624.69;;;22.45;57.51
63194;BME280;49289;51.670;5.624;2022-09-04T03:16:15;101627.97;;;22.50;57.45
63194;BME280;49289;51.670;5.624;2022-09-04T03:18:03;101624.48;;;22.42;57.46
63194;BME280;49289;51.670;5.624;2022-09-04T03:19:52;101624.69;;;22.45;57.33
63194;BME280;49289;51.670;5.624;2022-09-04T03:21:42;101635.73;;;22.46;57.25
63194;BME280;49289;51.670;5.624;2022-09-04T03:23:14;101621.77;;;22.32;57.37
63194;BME280;49289;51.670;5.624;2022-09-04T03:26:59;101619.98;;;22.26;57.61
63194;BME280;49289;51.670;5.624;2022-09-04T03:28:50;101629.87;;;22.34;57.51
63194;BME280;49289;51.670;5.624;2022-09-04T03:30:38;101628.72;;;22.36;57.34
63194;BME280;49289;51.670;5.624;2022-09-04T03:32:27;101623.42;;;22.29;57.36
63194;BME280;49289;51.670;5.624;2022-09-04T03:34:32;101629.95;;;22.32;57.64
63194;BME280;49289;51.670;5.624;2022-09-04T03:36:21;101634.48;;;22.33;57.60
63194;BME280;49289;51.670;5.624;2022-09-04T03:38:20;101630.04;;;22.33;57.55
63194;BME280;49289;51.670;5.624;2022-09-04T03:39:55;101628.44;;;22.30;57.54
63194;BME280;49289;51.670;5.624;2022-09-04T03:41:42;101633.28;;;22.27;57.72
63194;BME280;49289;51.670;5.624;2022-09-04T03:43:35;101634.54;;;22.18;57.84
63194;BME280;49289;51.670;5.624;2022-09-04T03:45:26;101630.70;;;22.18;57.77
63194;BME280;49289;51.670;5.624;2022-09-04T03:47:03;101635.22;;;22.20;57.66
63194;BME280;49289;51.670;5.624;2022-09-04T03:48:54;101641.41;;;22.20;57.51
63194;BME280;49289;51.670;5.624;2022-09-04T03:50:29;101640.39;;;22.16;57.56
63194;BME280;49289;51.670;5.624;2022-09-04T03:52:18;101639.75;;;22.07;57.91
63194;BME280;49289;51.670;5.624;2022-09-04T03:54:09;101638.25;;;22.07;58.01
63194;BME280;49289;51.670;5.624;2022-09-04T03:56:19;101642.02;;;22.08;58.10
63194;BME280;49289;51.670;5.624;2022-09-04T03:57:59;101643.34;;;22.08;58.03
63194;BME280;49289;51.670;5.624;2022-09-04T04:00:04;101646.77;;;22.06;58.02
63194;BME280;49289;51.670;5.624;2022-09-04T04:01:55;101648.27;;;22.02;58.15
63194;BME280;49289;51.670;5.624;2022-09-04T04:03:50;101649.42;;;22.00;58.10
63194;BME280;49289;51.670;5.624;2022-09-04T04:05:45;101649.36;;;21.89;58.48
63194;BME280;49289;51.670;5.624;2022-09-04T04:07:37;101644.52;;;21.90;58.39
63194;BME280;49289;51.670;5.624;2022-09-04T04:09:42;101631.47;;;21.88;57.79
63194;BME280;49289;51.670;5.624;2022-09-04T04:11:36;101651.69;;;22.01;57.90
63194;BME280;49289;51.670;5.624;2022-09-04T04:13:27;101656.58;;;21.94;58.10
63194;BME280;49289;51.670;5.624;2022-09-04T04:15:26;101656.73;;;21.93;58.16
63194;BME280;49289;51.670;5.624;2022-09-04T04:17:03;101657.67;;;21.83;58.35
63194;BME280;49289;51.670;5.624;2022-09-04T04:18:56;101657.46;;;21.81;58.50
63194;BME280;49289;51.670;5.624;2022-09-04T04:20:47;101641.34;;;21.70;58.56
63194;BME280;49289;51.670;5.624;2022-09-04T04:22:49;101658.19;;;21.78;58.82
63194;BME280;49289;51.670;5.624;2022-09-04T04:24:43;101660.41;;;21.72;58.92
63194;BME280;49289;51.670;5.624;2022-09-04T04:26:34;101665.45;;;21.77;58.65
63194;BME280;49289;51.670;5.624;2022-09-04T04:28:30;101664.80;;;21.80;58.61
63194;BME280;49289;51.670;5.624;2022-09-04T04:30:17;101665.79;;;21.77;58.74
63194;BME280;49289;51.670;5.624;2022-09-04T04:32:10;101668.57;;;21.81;58.54
63194;BME280;49289;51.670;5.624;2022-09-04T04:33:59;101672.39;;;21.84;58.59
63194;BME280;49289;51.670;5.624;2022-09-04T04:35:50;101673.31;;;21.78;58.72
63194;BME280;49289;51.670;5.624;2022-09-04T04:37:40;101679.48;;;21.77;58.63
63194;BME280;49289;51.670;5.624;2022-09-04T04:39:32;101676.62;;;21.73;58.68
63194;BME280;49289;51.670;5.624;2022-09-04T04:41:25;101678.84;;;21.69;59.00
63194;BME280;49289;51.670;5.624;2022-09-04T04:43:14;101681.70;;;21.71;59.09
63194;BME280;49289;51.670;5.624;2022-09-04T04:45:10;101683.60;;;21.68;59.31
63194;BME280;49289;51.670;5.624;2022-09-04T04:47:02;101686.58;;;21.64;59.39
63194;BME280;49289;51.670;5.624;2022-09-04T04:50:57;101686.31;;;21.73;59.21
63194;BME280;49289;51.670;5.624;2022-09-04T04:52:34;101683.27;;;21.68;59.18
63194;BME280;49289;51.670;5.624;2022-09-04T04:54:29;101671.24;;;21.62;59.05
63194;BME280;49289;51.670;5.624;2022-09-04T04:56:17;101685.34;;;21.66;58.96
63194;BME280;49289;51.670;5.624;2022-09-04T04:58:19;101686.18;;;21.67;59.16
63194;BME280;49289;51.670;5.624;2022-09-04T05:00:10;101686.03;;;21.69;59.27
63194;BME280;49289;51.670;5.624;2022-09-04T05:02:00;101671.81;;;21.60;59.28
63194;BME280;49289;51.670;5.624;2022-09-04T05:03:57;101687.98;;;21.72;59.21
63194;BME280;49289;51.670;5.624;2022-09-04T05:05:59;101692.55;;;21.69;59.35
63194;BME280;49289;51.670;5.624;2022-09-04T05:07:47;101694.52;;;21.75;59.14
63194;BME280;49289;51.670;5.624;2022-09-04T05:09:39;101697.34;;;21.73;59.16
63194;BME280;49289;51.670;5.624;2022-09-04T05:12:36;101688.55;;;21.55;59.44
63194;BME280;49289;51.670;5.624;2022-09-04T05:14:25;101708.36;;;21.72;59.27
63194;BME280;49289;51.670;5.624;2022-09-04T05:16:14;101706.52;;;21.72;59.14
63194;BME280;49289;51.670;5.624;2022-09-04T05:18:03;101699.05;;;21.66;59.03
63194;BME280;49289;51.670;5.624;2022-09-04T05:19:51;101698.09;;;21.73;58.77
63194;BME280;49289;51.670;5.624;2022-09-04T05:21:38;101717.02;;;21.79;58.73
63194;BME280;49289;51.670;5.624;2022-09-04T05:23:28;101704.58;;;21.69;59.01
63194;BME280;49289;51.670;5.624;2022-09-04T05:25:15;101707.52;;;21.72;59.07
63194;BME280;49289;51.670;5.624;2022-09-04T05:27:04;101723.58;;;21.74;59.29
63194;BME280;49289;51.670;5.624;2022-09-04T05:28:53;101711.79;;;21.73;59.17
63194;BME280;49289;51.670;5.624;2022-09-04T05:30:45;101724.31;;;21.82;59.27
63194;BME280;49289;51.670;5.624;2022-09-04T05:32:30;101716.14;;;21.74;59.34
63194;BME280;49289;51.670;5.624;2022-09-04T05:34:20;101729.70;;;21.82;59.34
63194;BME280;49289;51.670;5.624;2022-09-04T05:35:57;101719.20;;;21.80;59.29
63194;BME280;49289;51.670;5.624;2022-09-04T05:37:44;101736.68;;;21.82;59.36
63194;BME280;49289;51.670;5.624;2022-09-04T05:39:20;101741.53;;;21.89;59.43
63194;BME280;49289;51.670;5.624;2022-09-04T05:41:10;101726.97;;;21.80;59.45
63194;BME280;49289;51.670;5.624;2022-09-04T05:43:05;101729.03;;;21.77;59.55
63194;BME280;49289;51.670;5.624;2022-09-04T05:45:00;101745.27;;;21.96;59.44
63194;BME280;49289;51.670;5.624;2022-09-04T05:46:35;101736.03;;;21.90;59.49
63194;BME280;49289;51.670;5.624;2022-09-04T05:48:24;101753.88;;;21.97;59.75
63194;BME280;49289;51.670;5.624;2022-09-04T05:50:05;101738.55;;;21.92;59.71
63194;BME280;49289;51.670;5.624;2022-09-04T05:54:27;101755.80;;;22.09;59.71
63194;BME280;49289;51.670;5.624;2022-09-04T05:58:32;101765.25;;;22.22;59.73
63194;BME280;49289;51.670;5.624;2022-09-04T06:00:21;101769.63;;;22.35;59.61
63194;BME280;49289;51.670;5.624;2022-09-04T06:02:20;101752.58;;;22.36;59.67
63194;BME280;49289;51.670;5.624;2022-09-04T06:04:19;101769.83;;;22.48;59.69
63194;BME280;49289;51.670;5.624;2022-09-04T06:06:12;101758.33;;;22.55;59.48
63194;BME280;49289;51.670;5.624;2022-09-04T06:08:06;101772.25;;;22.72;59.38
63194;BME280;49289;51.670;5.624;2022-09-04T06:10:02;101777.06;;;22.81;59.31
63194;BME280;49289;51.670;5.624;2022-09-04T06:11:59;101780.91;;;22.80;59.59
63194;BME280;49289;51.670;5.624;2022-09-04T06:14:02;101783.43;;;22.87;59.59
63194;BME280;49289;51.670;5.624;2022-09-04T06:15:55;101786.95;;;22.87;59.67
63194;BME280;49289;51.670;5.624;2022-09-04T06:19:59;101763.55;;;22.99;59.21
63194;BME280;49289;51.670;5.624;2022-09-04T06:22:15;101777.45;;;23.15;59.22
63194;BME280;49289;51.670;5.624;2022-09-04T06:24:22;101763.29;;;23.10;59.19
63194;BME280;49289;51.670;5.624;2022-09-04T06:26:14;101767.59;;;23.22;58.91
63194;BME280;49289;51.670;5.624;2022-09-04T06:27:53;101783.31;;;23.30;58.96
63194;BME280;49289;51.670;5.624;2022-09-04T06:29:31;101767.24;;;23.15;59.01
63194;BME280;49289;51.670;5.624;2022-09-04T06:31:28;101766.67;;;23.20;58.98
63194;BME280;49289;51.670;5.624;2022-09-04T06:33:40;101786.44;;;23.40;58.77
63194;BME280;49289;51.670;5.624;2022-09-04T06:35:46;101794.81;;;23.41;58.77
63194;BME280;49289;51.670;5.624;2022-09-04T06:37:36;101792.26;;;23.08;59.56
63194;BME280;49289;51.670;5.624;2022-09-04T06:41:44;101799.83;;;23.17;59.62
63194;BME280;49289;51.670;5.624;2022-09-04T06:43:34;101799.67;;;23.39;59.18
63194;BME280;49289;51.670;5.624;2022-09-04T06:45:24;101799.05;;;23.46;58.89
63194;BME280;49289;51.670;5.624;2022-09-04T06:47:15;101783.98;;;23.29;59.11
63194;BME280;49289;51.670;5.624;2022-09-04T06:49:07;101799.98;;;23.67;58.47
63194;BME280;49289;51.670;5.624;2022-09-04T06:50:58;101801.09;;;23.80;58.07
63194;BME280;49289;51.670;5.624;2022-09-04T06:52:31;101789.02;;;23.77;57.96
63194;BME280;49289;51.670;5.624;2022-09-04T06:54:23;101805.91;;;23.85;57.94
63194;BME280;49289;51.670;5.624;2022-09-04T06:56:18;101787.63;;;23.62;58.17
63194;BME280;49289;51.670;5.624;2022-09-04T06:58:12;101809.66;;;23.57;58.62
63194;BME280;49289;51.670;5.624;2022-09-04T07:00:10;101792.36;;;23.70;58.41
63194;BME280;49289;51.670;5.624;2022-09-04T07:02:02;101804.31;;;23.97;58.03
63194;BME280;49289;51.670;5.624;2022-09-04T07:03:59;101800.33;;;24.05;57.73
63194;BME280;49289;51.670;5.624;2022-09-04T07:05:50;101803.27;;;23.80;58.30
63194;BME280;49289;51.670;5.624;2022-09-04T07:07:37;101799.91;;;24.07;57.68
63194;BME280;49289;51.670;5.624;2022-09-04T07:09:24;101785.03;;;23.95;57.80
63194;BME280;49289;51.670;5.624;2022-09-04T07:11:18;101789.81;;;23.97;57.86
63194;BME280;49289;51.670;5.624;2022-09-04T07:15:03;101806.36;;;24.15;57.75
63194;BME280;49289;51.670;5.624;2022-09-04T07:16:34;101790.22;;;24.29;57.22
63194;BME280;49289;51.670;5.624;2022-09-04T07:18:29;101809.53;;;24.44;56.96
63194;BME280;49289;51.670;5.624;2022-09-04T07:20:20;101797.34;;;24.55;56.70
63194;BME280;49289;51.670;5.624;2022-09-04T07:21:57;101815.56;;;24.47;56.94
63194;BME280;49289;51.670;5.624;2022-09-04T07:23:47;101800.96;;;24.63;56.46
63194;BME280;49289;51.670;5.624;2022-09-04T07:25:38;101803.20;;;24.73;56.30
63194;BME280;49289;51.670;5.624;2022-09-04T07:27:26;101803.69;;;24.77;56.09
63194;BME280;49289;51.670;5.624;2022-09-04T07:29:17;101824.39;;;24.98;55.87
63194;BME280;49289;51.670;5.624;2022-09-04T07:31:04;101821.87;;;24.98;55.83
63194;BME280;49289;51.670;5.624;2022-09-04T07:32:51;101810.58;;;25.03;55.75
63194;BME280;49289;51.670;5.624;2022-09-04T07:34:42;101828.30;;;25.22;55.57
63194;BME280;49289;51.670;5.624;2022-09-04T07:36:35;101832.52;;;25.25;55.65
63194;BME280;49289;51.670;5.624;2022-09-04T07:38:24;101829.63;;;25.32;54.96
63194;BME280;49289;51.670;5.624;2022-09-04T07:40:13;101826.91;;;25.44;55.12
63194;BME280;49289;51.670;5.624;2022-09-04T07:42:03;101827.46;;;25.63;54.70
63194;BME280;49289;51.670;5.624;2022-09-04T07:43:51;101812.61;;;25.58;54.64
63194;BME280;49289;51.670;5.624;2022-09-04T07:45:39;101808.41;;;25.68;54.25
63194;BME280;49289;51.670;5.624;2022-09-04T07:47:27;101825.38;;;25.82;54.08
63194;BME280;49289;51.670;5.624;2022-09-04T07:49:01;101825.89;;;25.82;54.16
63194;BME280;49289;51.670;5.624;2022-09-04T07:50:53;101812.77;;;25.82;54.07
63194;BME280;49289;51.670;5.624;2022-09-04T07:52:28;101813.75;;;25.89;53.55
63194;BME280;49289;51.670;5.624;2022-09-04T07:54:34;101816.64;;;25.69;53.91
63194;BME280;49289;51.670;5.624;2022-09-04T07:56:24;101816.43;;;25.75;53.83
63194;BME280;49289;51.670;5.624;2022-09-04T08:00:19;101834.09;;;25.90;53.99
63194;BME280;49289;51.670;5.624;2022-09-04T08:02:14;101840.09;;;26.13;53.19
63194;BME280;49289;51.670;5.624;2022-09-04T08:04:27;101836.69;;;26.18;53.08
63194;BME280;49289;51.670;5.624;2022-09-04T08:06:16;101843.22;;;25.97;53.84
63194;BME280;49289;51.670;5.624;2022-09-04T08:10:36;101830.98;;;26.43;53.23
63194;BME280;49289;51.670;5.624;2022-09-04T08:12:36;101832.74;;;26.45;52.81
63194;BME280;49289;51.670;5.624;2022-09-04T08:14:31;101832.78;;;26.57;52.03
63194;BME280;49289;51.670;5.624;2022-09-04T08:16:21;101844.08;;;26.75;52.06
63194;BME280;49289;51.670;5.624;2022-09-04T08:17:58;101856.36;;;26.77;52.07
63194;BME280;49289;51.670;5.624;2022-09-04T08:19:51;101846.66;;;26.88;51.82
63194;BME280;49289;51.670;5.624;2022-09-04T08:21:26;101863.68;;;27.08;51.73
63194;BME280;49289;51.670;5.624;2022-09-04T08:23:18;101845.43;;;26.47;52.11
63194;BME280;49289;51.670;5.624;2022-09-04T08:25:19;101862.55;;;26.53;51.92
63194;BME280;49289;51.670;5.624;2022-09-04T08:27:10;101863.30;;;26.84;51.64
63194;BME280;49289;51.670;5.624;2022-09-04T08:29:26;101861.56;;;26.89;51.40
63194;BME280;49289;51.670;5.624;2022-09-04T08:31:13;101864.59;;;26.59;51.89
63194;BME280;49289;51.670;5.624;2022-09-04T08:33:02;101845.69;;;27.04;50.98
63194;BME280;49289;51.670;5.624;2022-09-04T08:35:01;101859.63;;;27.31;50.32
63194;BME280;49289;51.670;5.624;2022-09-04T08:36:50;101848.29;;;26.93;50.32
63194;BME280;49289;51.670;5.624;2022-09-04T08:38:40;101848.95;;;27.20;49.97
63194;BME280;49289;51.670;5.624;2022-09-04T08:40:21;101864.58;;;27.64;48.96
63194;BME280;49289;51.670;5.624;2022-09-04T08:48:43;101864.84;;;27.99;47.73
63194;BME280;49289;51.670;5.624;2022-09-04T08:50:51;101869.22;;;28.13;47.68
63194;BME280;49289;51.670;5.624;2022-09-04T08:55:22;101856.02;;;28.49;46.59
63194;BME280;49289;51.670;5.624;2022-09-04T08:57:00;101867.39;;;28.66;46.47
63194;BME280;49289;51.670;5.624;2022-09-04T09:00:50;101866.78;;;29.01;45.17
63194;BME280;49289;51.670;5.624;2022-09-04T09:05:16;101707.95;;;27.86;45.37
63194;BME280;49289;51.670;5.624;2022-09-04T09:07:10;101853.50;;;29.07;44.90
63194;BME280;49289;51.670;5.624;2022-09-04T09:11:40;101852.98;;;29.48;44.39
63194;BME280;49289;51.670;5.624;2022-09-04T09:13:35;101864.95;;;29.61;43.14
63194;BME280;49289;51.670;5.624;2022-09-04T09:17:58;101848.20;;;29.95;42.62
63194;BME280;49289;51.670;5.624;2022-09-04T09:19:51;101860.56;;;30.11;42.35
63194;BME280;49289;51.670;5.624;2022-09-04T09:21:39;101860.45;;;30.22;41.40
63194;BME280;49289;51.670;5.624;2022-09-04T09:23:28;101863.20;;;30.26;41.54
63194;BME280;49289;51.670;5.624;2022-09-04T09:25:22;101849.35;;;30.16;41.84
63194;BME280;49289;51.670;5.624;2022-09-04T09:27:14;101846.87;;;30.17;43.48
63194;BME280;49289;51.670;5.624;2022-09-04T09:29:14;101859.84;;;30.70;41.22
63194;BME280;49289;51.670;5.624;2022-09-04T09:33:39;101862.66;;;30.37;40.51
63194;BME280;49289;51.670;5.624;2022-09-04T09:37:55;101846.31;;;30.61;41.26
63194;BME280;49289;51.670;5.624;2022-09-04T09:39:52;101841.43;;;30.67;39.81
63194;BME280;49289;51.670;5.624;2022-09-04T09:44:17;101863.56;;;31.24;40.19
63194;BME280;49289;51.670;5.624;2022-09-04T09:46:19;101866.83;;;31.43;38.61
63194;BME280;49289;51.670;5.624;2022-09-04T09:48:36;101862.80;;;31.33;39.70
63194;BME280;49289;51.670;5.624;2022-09-04T09:52:29;101857.69;;;31.66;39.43
63194;BME280;49289;51.670;5.624;2022-09-04T09:54:35;101869.52;;;31.50;38.78
63194;BME280;49289;51.670;5.624;2022-09-04T09:56:53;101871.72;;;31.45;40.27
63194;BME280;49289;51.670;5.624;2022-09-04T09:58:51;101869.78;;;31.93;39.42
63194;BME280;49289;51.670;5.624;2022-09-04T10:00:38;101867.98;;;32.13;39.66
63194;BME280;49289;51.670;5.624;2022-09-04T10:06:38;101864.28;;;32.64;36.98
63194;BME280;49289;51.670;5.624;2022-09-04T10:08:46;101858.13;;;32.52;36.94
63194;BME280;49289;51.670;5.624;2022-09-04T10:13:02;101868.05;;;31.99;36.93
63194;BME280;49289;51.670;5.624;2022-09-04T10:17:21;101852.30;;;32.21;37.29
63194;BME280;49289;51.670;5.624;2022-09-04T10:21:54;101845.15;;;33.01;36.39
63194;BME280;49289;51.670;5.624;2022-09-04T10:23:53;101859.44;;;33.24;36.10
63194;BME280;49289;51.670;5.624;2022-09-04T10:27:44;101859.27;;;33.59;35.10
63194;BME280;49289;51.670;5.624;2022-09-04T10:29:54;101844.85;;;33.45;35.38
63194;BME280;49289;51.670;5.624;2022-09-04T10:31:58;101858.84;;;33.57;35.81
63194;BME280;49289;51.670;5.624;2022-09-04T10:33:49;101847.53;;;33.70;33.81
63194;BME280;49289;51.670;5.624;2022-09-04T10:35:39;101859.61;;;33.48;33.73
63194;BME280;49289;51.670;5.624;2022-09-04T10:37:34;101857.83;;;33.29;33.57
63194;BME280;49289;51.670;5.624;2022-09-04T10:39:24;101842.45;;;33.30;33.84
63194;BME280;49289;51.670;5.624;2022-09-04T10:41:29;101846.69;;;33.36;34.06
63194;BME280;49289;51.670;5.624;2022-09-04T10:43:04;101855.75;;;32.39;35.38